Rodman, Iowa
Current Conditions -  °F | °C
As of 3:35 PM on Monday 24 Nov 2014 (Local Time) from KAXA Reporting Station
Overcast Overcast  
Wind Chill: -14°   Ceiling: 2300
Heat Index: -5°   Visibility: 10mi
Dew Point: -10°   Wind: 22mph
Humidity: 68%   Direction: 310°NW
Pressure: 29.7"   Gusts: 33mph
Location:  43.0372°N, 94.5003°W
Report Text: KAXA 242135Z AUTO 31019G29KT 10SM BKN023 OVC036 M05/M10 A2970 RMK AO2
Loading
Personal Weather Stations






























Interactive Weather Map New forecast layout! Learn more

10-Day Weather Forecast

Advertisements
Track Severe Weather on mobile